sensor_id;sensor_type;location;lat;lon;timestamp;P1;durP1;ratioP1;P2;durP2;ratioP2
71174;SDS011;58876;51.994;4.472;2022-10-22T00:02:15;29.53;;;29.53;;
71174;SDS011;58876;51.994;4.472;2022-10-22T00:04:44;47.22;;;47.22;;
71174;SDS011;58876;51.994;4.472;2022-10-22T00:07:11;44.32;;;44.32;;
71174;SDS011;58876;51.994;4.472;2022-10-22T00:09:36;43.25;;;43.25;;
71174;SDS011;58876;51.994;4.472;2022-10-22T00:12:02;39.66;;;39.66;;
71174;SDS011;58876;51.994;4.472;2022-10-22T00:14:27;39.98;;;39.98;;
71174;SDS011;58876;51.994;4.472;2022-10-22T00:16:53;40.09;;;40.09;;
71174;SDS011;58876;51.994;4.472;2022-10-22T00:19:20;41.02;;;41.02;;
71174;SDS011;58876;51.994;4.472;2022-10-22T00:21:46;43.53;;;43.53;;
71174;SDS011;58876;51.994;4.472;2022-10-22T00:24:11;48.26;;;48.26;;
71174;SDS011;58876;51.994;4.472;2022-10-22T00:26:36;43.74;;;43.74;;
71174;SDS011;58876;51.994;4.472;2022-10-22T00:29:03;42.57;;;42.57;;
71174;SDS011;58876;51.994;4.472;2022-10-22T00:31:29;49.31;;;49.31;;
71174;SDS011;58876;51.994;4.472;2022-10-22T00:33:54;46.54;;;46.54;;
71174;SDS011;58876;51.994;4.472;2022-10-22T00:36:20;51.78;;;51.78;;
71174;SDS011;58876;51.994;4.472;2022-10-22T00:38:45;41.29;;;41.29;;
71174;SDS011;58876;51.994;4.472;2022-10-22T00:41:10;48.28;;;48.28;;
71174;SDS011;58876;51.994;4.472;2022-10-22T00:43:56;49.17;;;49.17;;
71174;SDS011;58876;51.994;4.472;2022-10-22T00:46:24;46.29;;;46.29;;
71174;SDS011;58876;51.994;4.472;2022-10-22T00:48:51;47.20;;;47.20;;
71174;SDS011;58876;51.994;4.472;2022-10-22T00:51:21;48.78;;;48.78;;
71174;SDS011;58876;51.994;4.472;2022-10-22T00:53:52;48.92;;;48.92;;
71174;SDS011;58876;51.994;4.472;2022-10-22T00:56:22;53.04;;;53.04;;
71174;SDS011;58876;51.994;4.472;2022-10-22T00:58:50;54.25;;;54.25;;
71174;SDS011;58876;51.994;4.472;2022-10-22T01:01:22;47.61;;;47.61;;
71174;SDS011;58876;51.994;4.472;2022-10-22T01:03:50;45.24;;;45.24;;
71174;SDS011;58876;51.994;4.472;2022-10-22T01:06:24;57.48;;;57.48;;
71174;SDS011;58876;51.994;4.472;2022-10-22T01:14:33;57.25;;;57.25;;
71174;SDS011;58876;51.994;4.472;2022-10-22T01:17:11;56.67;;;56.67;;
71174;SDS011;58876;51.994;4.472;2022-10-22T01:22:39;64.76;;;64.76;;
71174;SDS011;58876;51.994;4.472;2022-10-22T01:25:29;57.60;;;57.60;;
71174;SDS011;58876;51.994;4.472;2022-10-22T01:31:02;72.26;;;72.26;;
71174;SDS011;58876;51.994;4.472;2022-10-22T01:33:31;69.35;;;69.35;;
71174;SDS011;58876;51.994;4.472;2022-10-22T01:35:57;64.53;;;64.53;;
71174;SDS011;58876;51.994;4.472;2022-10-22T01:38:24;66.70;;;66.70;;
71174;SDS011;58876;51.994;4.472;2022-10-22T01:40:52;76.35;;;76.35;;
71174;SDS011;58876;51.994;4.472;2022-10-22T01:43:18;69.55;;;69.55;;
71174;SDS011;58876;51.994;4.472;2022-10-22T01:45:47;70.46;;;70.46;;
71174;SDS011;58876;51.994;4.472;2022-10-22T01:51:01;64.35;;;64.35;;
71174;SDS011;58876;51.994;4.472;2022-10-22T01:56:16;61.80;;;61.80;;
71174;SDS011;58876;51.994;4.472;2022-10-22T01:59:15;51.13;;;51.13;;
71174;SDS011;58876;51.994;4.472;2022-10-22T02:07:36;37.47;;;37.47;;
71174;SDS011;58876;51.994;4.472;2022-10-22T02:10:06;81.38;;;81.38;;
71174;SDS011;58876;51.994;4.472;2022-10-22T02:12:34;56.84;;;56.84;;
71174;SDS011;58876;51.994;4.472;2022-10-22T02:15:03;28.58;;;28.58;;
71174;SDS011;58876;51.994;4.472;2022-10-22T02:17:29;24.56;;;24.56;;
71174;SDS011;58876;51.994;4.472;2022-10-22T02:20:02;25.45;;;25.45;;
71174;SDS011;58876;51.994;4.472;2022-10-22T02:22:34;19.76;;;19.76;;
71174;SDS011;58876;51.994;4.472;2022-10-22T02:25:01;13.39;;;13.39;;
71174;SDS011;58876;51.994;4.472;2022-10-22T02:30:00;14.27;;;14.27;;
71174;SDS011;58876;51.994;4.472;2022-10-22T02:32:56;15.22;;;15.22;;
71174;SDS011;58876;51.994;4.472;2022-10-22T02:35:25;22.71;;;22.71;;
71174;SDS011;58876;51.994;4.472;2022-10-22T02:37:52;28.26;;;28.26;;
71174;SDS011;58876;51.994;4.472;2022-10-22T02:40:22;27.66;;;27.66;;
71174;SDS011;58876;51.994;4.472;2022-10-22T02:42:49;22.09;;;22.09;;
71174;SDS011;58876;51.994;4.472;2022-10-22T02:45:18;15.21;;;15.21;;
71174;SDS011;58876;51.994;4.472;2022-10-22T02:47:44;12.88;;;12.88;;
71174;SDS011;58876;51.994;4.472;2022-10-22T02:50:10;11.28;;;11.28;;
71174;SDS011;58876;51.994;4.472;2022-10-22T02:52:35;11.79;;;11.79;;
71174;SDS011;58876;51.994;4.472;2022-10-22T02:55:02;13.19;;;13.19;;
71174;SDS011;58876;51.994;4.472;2022-10-22T02:57:28;12.37;;;12.37;;
71174;SDS011;58876;51.994;4.472;2022-10-22T02:59:53;14.95;;;14.95;;
71174;SDS011;58876;51.994;4.472;2022-10-22T03:02:18;15.64;;;15.64;;
71174;SDS011;58876;51.994;4.472;2022-10-22T03:04:44;13.18;;;13.18;;
71174;SDS011;58876;51.994;4.472;2022-10-22T03:07:09;9.96;;;9.96;;
71174;SDS011;58876;51.994;4.472;2022-10-22T03:09:36;10.83;;;10.83;;
71174;SDS011;58876;51.994;4.472;2022-10-22T03:12:01;7.96;;;7.96;;
71174;SDS011;58876;51.994;4.472;2022-10-22T03:14:27;6.78;;;6.78;;
71174;SDS011;58876;51.994;4.472;2022-10-22T03:16:52;6.94;;;6.94;;
71174;SDS011;58876;51.994;4.472;2022-10-22T03:19:18;6.89;;;6.89;;
71174;SDS011;58876;51.994;4.472;2022-10-22T03:21:48;9.13;;;9.13;;
71174;SDS011;58876;51.994;4.472;2022-10-22T03:24:22;9.55;;;9.55;;
71174;SDS011;58876;51.994;4.472;2022-10-22T03:26:52;14.08;;;14.08;;
71174;SDS011;58876;51.994;4.472;2022-10-22T03:29:19;19.47;;;19.47;;
71174;SDS011;58876;51.994;4.472;2022-10-22T03:31:47;23.47;;;23.47;;
71174;SDS011;58876;51.994;4.472;2022-10-22T03:34:13;22.39;;;22.39;;
71174;SDS011;58876;51.994;4.472;2022-10-22T03:36:39;21.67;;;21.67;;
71174;SDS011;58876;51.994;4.472;2022-10-22T03:39:06;19.69;;;19.69;;
71174;SDS011;58876;51.994;4.472;2022-10-22T03:41:33;20.31;;;20.31;;
71174;SDS011;58876;51.994;4.472;2022-10-22T03:44:00;21.55;;;21.55;;
71174;SDS011;58876;51.994;4.472;2022-10-22T03:46:28;20.03;;;20.03;;
71174;SDS011;58876;51.994;4.472;2022-10-22T03:48:53;19.66;;;19.66;;
71174;SDS011;58876;51.994;4.472;2022-10-22T03:51:19;16.72;;;16.72;;
71174;SDS011;58876;51.994;4.472;2022-10-22T03:53:44;18.94;;;18.94;;
71174;SDS011;58876;51.994;4.472;2022-10-22T03:56:10;17.26;;;17.26;;
71174;SDS011;58876;51.994;4.472;2022-10-22T03:58:37;19.97;;;19.97;;
71174;SDS011;58876;51.994;4.472;2022-10-22T04:01:08;15.10;;;15.10;;
71174;SDS011;58876;51.994;4.472;2022-10-22T04:03:35;15.72;;;15.72;;
71174;SDS011;58876;51.994;4.472;2022-10-22T04:06:09;21.53;;;21.53;;
71174;SDS011;58876;51.994;4.472;2022-10-22T04:08:37;23.92;;;23.92;;
71174;SDS011;58876;51.994;4.472;2022-10-22T04:11:05;20.57;;;20.57;;
71174;SDS011;58876;51.994;4.472;2022-10-22T04:13:31;15.93;;;15.93;;
71174;SDS011;58876;51.994;4.472;2022-10-22T04:18:56;16.77;;;16.77;;
71174;SDS011;58876;51.994;4.472;2022-10-22T04:21:22;16.79;;;16.79;;
71174;SDS011;58876;51.994;4.472;2022-10-22T04:23:48;16.97;;;16.97;;
71174;SDS011;58876;51.994;4.472;2022-10-22T04:26:17;17.02;;;17.02;;
71174;SDS011;58876;51.994;4.472;2022-10-22T04:28:44;16.30;;;16.30;;
71174;SDS011;58876;51.994;4.472;2022-10-22T04:31:13;17.40;;;17.40;;
71174;SDS011;58876;51.994;4.472;2022-10-22T04:33:40;19.57;;;19.57;;
71174;SDS011;58876;51.994;4.472;2022-10-22T04:36:10;13.50;;;13.50;;
71174;SDS011;58876;51.994;4.472;2022-10-22T04:38:41;13.62;;;13.62;;
71174;SDS011;58876;51.994;4.472;2022-10-22T04:41:09;17.31;;;17.31;;
71174;SDS011;58876;51.994;4.472;2022-10-22T04:43:35;16.25;;;16.25;;
71174;SDS011;58876;51.994;4.472;2022-10-22T04:46:01;17.27;;;17.27;;
71174;SDS011;58876;51.994;4.472;2022-10-22T04:48:26;15.72;;;15.72;;
71174;SDS011;58876;51.994;4.472;2022-10-22T04:50:53;15.67;;;15.67;;
71174;SDS011;58876;51.994;4.472;2022-10-22T04:53:18;15.21;;;15.21;;
71174;SDS011;58876;51.994;4.472;2022-10-22T04:55:43;15.16;;;15.16;;
71174;SDS011;58876;51.994;4.472;2022-10-22T04:58:09;18.51;;;18.51;;
71174;SDS011;58876;51.994;4.472;2022-10-22T05:00:34;17.09;;;17.09;;
71174;SDS011;58876;51.994;4.472;2022-10-22T05:02:59;13.74;;;13.74;;
71174;SDS011;58876;51.994;4.472;2022-10-22T05:05:25;13.30;;;13.30;;
71174;SDS011;58876;51.994;4.472;2022-10-22T05:07:50;13.63;;;13.63;;
71174;SDS011;58876;51.994;4.472;2022-10-22T05:10:16;12.67;;;12.67;;
71174;SDS011;58876;51.994;4.472;2022-10-22T05:12:41;11.47;;;11.47;;
71174;SDS011;58876;51.994;4.472;2022-10-22T05:15:07;10.78;;;10.78;;
71174;SDS011;58876;51.994;4.472;2022-10-22T05:17:36;9.74;;;9.74;;
71174;SDS011;58876;51.994;4.472;2022-10-22T05:20:03;10.64;;;10.64;;
71174;SDS011;58876;51.994;4.472;2022-10-22T05:22:29;10.80;;;10.80;;
71174;SDS011;58876;51.994;4.472;2022-10-22T05:24:55;10.39;;;10.39;;
71174;SDS011;58876;51.994;4.472;2022-10-22T05:27:20;10.42;;;10.42;;
71174;SDS011;58876;51.994;4.472;2022-10-22T05:29:45;13.36;;;13.36;;
71174;SDS011;58876;51.994;4.472;2022-10-22T05:32:11;12.92;;;12.92;;
71174;SDS011;58876;51.994;4.472;2022-10-22T05:34:36;13.05;;;13.05;;
71174;SDS011;58876;51.994;4.472;2022-10-22T05:37:02;10.00;;;10.00;;
71174;SDS011;58876;51.994;4.472;2022-10-22T05:39:28;11.50;;;11.50;;
71174;SDS011;58876;51.994;4.472;2022-10-22T05:41:53;10.71;;;10.71;;
71174;SDS011;58876;51.994;4.472;2022-10-22T05:44:18;10.20;;;10.20;;
71174;SDS011;58876;51.994;4.472;2022-10-22T05:46:44;12.98;;;12.98;;
71174;SDS011;58876;51.994;4.472;2022-10-22T05:49:11;10.38;;;10.38;;
71174;SDS011;58876;51.994;4.472;2022-10-22T05:51:40;15.01;;;15.01;;
71174;SDS011;58876;51.994;4.472;2022-10-22T05:54:06;11.63;;;11.63;;
71174;SDS011;58876;51.994;4.472;2022-10-22T05:56:39;10.50;;;10.50;;
71174;SDS011;58876;51.994;4.472;2022-10-22T05:59:04;10.97;;;10.97;;
71174;SDS011;58876;51.994;4.472;2022-10-22T06:01:31;8.95;;;8.95;;
71174;SDS011;58876;51.994;4.472;2022-10-22T06:04:00;11.01;;;11.01;;
71174;SDS011;58876;51.994;4.472;2022-10-22T06:06:31;13.93;;;13.93;;
71174;SDS011;58876;51.994;4.472;2022-10-22T06:09:04;12.67;;;12.67;;
71174;SDS011;58876;51.994;4.472;2022-10-22T06:11:37;16.66;;;16.66;;
71174;SDS011;58876;51.994;4.472;2022-10-22T06:14:03;17.83;;;17.83;;
71174;SDS011;58876;51.994;4.472;2022-10-22T06:16:29;16.30;;;16.30;;
71174;SDS011;58876;51.994;4.472;2022-10-22T06:18:56;15.04;;;15.04;;
71174;SDS011;58876;51.994;4.472;2022-10-22T06:21:23;16.48;;;16.48;;
71174;SDS011;58876;51.994;4.472;2022-10-22T06:23:48;14.21;;;14.21;;
71174;SDS011;58876;51.994;4.472;2022-10-22T06:26:14;16.75;;;16.75;;
71174;SDS011;58876;51.994;4.472;2022-10-22T06:28:42;16.36;;;16.36;;
71174;SDS011;58876;51.994;4.472;2022-10-22T06:31:08;17.02;;;17.02;;
71174;SDS011;58876;51.994;4.472;2022-10-22T06:33:34;17.33;;;17.33;;
71174;SDS011;58876;51.994;4.472;2022-10-22T06:36:07;14.60;;;14.60;;
71174;SDS011;58876;51.994;4.472;2022-10-22T06:38:38;18.63;;;18.63;;
71174;SDS011;58876;51.994;4.472;2022-10-22T06:41:05;22.94;;;22.94;;
71174;SDS011;58876;51.994;4.472;2022-10-22T06:43:33;27.39;;;27.39;;
71174;SDS011;58876;51.994;4.472;2022-10-22T06:45:59;28.29;;;28.29;;
71174;SDS011;58876;51.994;4.472;2022-10-22T06:48:26;24.72;;;24.72;;
71174;SDS011;58876;51.994;4.472;2022-10-22T06:50:53;26.66;;;26.66;;
71174;SDS011;58876;51.994;4.472;2022-10-22T06:53:18;30.70;;;30.70;;
71174;SDS011;58876;51.994;4.472;2022-10-22T06:55:44;33.64;;;33.64;;
71174;SDS011;58876;51.994;4.472;2022-10-22T06:58:09;33.10;;;33.10;;
71174;SDS011;58876;51.994;4.472;2022-10-22T07:00:35;35.51;;;35.51;;
71174;SDS011;58876;51.994;4.472;2022-10-22T07:03:00;36.66;;;36.66;;
71174;SDS011;58876;51.994;4.472;2022-10-22T07:05:26;44.02;;;44.02;;
71174;SDS011;58876;51.994;4.472;2022-10-22T07:07:51;41.53;;;41.53;;
71174;SDS011;58876;51.994;4.472;2022-10-22T07:10:17;47.08;;;47.08;;
71174;SDS011;58876;51.994;4.472;2022-10-22T07:12:43;41.82;;;41.82;;
71174;SDS011;58876;51.994;4.472;2022-10-22T07:15:08;40.55;;;40.55;;
71174;SDS011;58876;51.994;4.472;2022-10-22T07:17:34;40.85;;;40.85;;
71174;SDS011;58876;51.994;4.472;2022-10-22T07:19:59;42.44;;;42.44;;
71174;SDS011;58876;51.994;4.472;2022-10-22T07:22:25;41.99;;;41.99;;
71174;SDS011;58876;51.994;4.472;2022-10-22T07:24:50;38.22;;;38.22;;
71174;SDS011;58876;51.994;4.472;2022-10-22T07:27:16;32.73;;;32.73;;
71174;SDS011;58876;51.994;4.472;2022-10-22T07:29:43;33.93;;;33.93;;
71174;SDS011;58876;51.994;4.472;2022-10-22T07:32:09;38.60;;;38.60;;
71174;SDS011;58876;51.994;4.472;2022-10-22T07:34:34;54.73;;;54.73;;
71174;SDS011;58876;51.994;4.472;2022-10-22T07:37:00;132.26;;;132.26;;
71174;SDS011;58876;51.994;4.472;2022-10-22T07:39:26;94.59;;;94.59;;
71174;SDS011;58876;51.994;4.472;2022-10-22T07:41:52;73.56;;;73.56;;
71174;SDS011;58876;51.994;4.472;2022-10-22T07:44:19;80.39;;;80.39;;
71174;SDS011;58876;51.994;4.472;2022-10-22T07:46:44;102.92;;;102.92;;
71174;SDS011;58876;51.994;4.472;2022-10-22T07:49:10;74.71;;;74.71;;
71174;SDS011;58876;51.994;4.472;2022-10-22T07:51:35;98.43;;;98.43;;
71174;SDS011;58876;51.994;4.472;2022-10-22T07:54:01;86.36;;;86.36;;
71174;SDS011;58876;51.994;4.472;2022-10-22T07:56:26;237.11;;;237.11;;
71174;SDS011;58876;51.994;4.472;2022-10-22T07:58:52;515.85;;;515.85;;
71174;SDS011;58876;51.994;4.472;2022-10-22T08:01:17;158.53;;;158.53;;
71174;SDS011;58876;51.994;4.472;2022-10-22T08:03:43;42.89;;;42.89;;
71174;SDS011;58876;51.994;4.472;2022-10-22T08:06:09;54.24;;;54.24;;
71174;SDS011;58876;51.994;4.472;2022-10-22T08:08:37;52.27;;;52.27;;
71174;SDS011;58876;51.994;4.472;2022-10-22T08:11:03;45.35;;;45.35;;
71174;SDS011;58876;51.994;4.472;2022-10-22T08:13:28;48.27;;;48.27;;
71174;SDS011;58876;51.994;4.472;2022-10-22T08:15:55;43.14;;;43.14;;
71174;SDS011;58876;51.994;4.472;2022-10-22T08:18:21;41.76;;;41.76;;
71174;SDS011;58876;51.994;4.472;2022-10-22T08:20:46;39.77;;;39.77;;
71174;SDS011;58876;51.994;4.472;2022-10-22T08:23:12;45.16;;;45.16;;
71174;SDS011;58876;51.994;4.472;2022-10-22T08:25:37;50.12;;;50.12;;
71174;SDS011;58876;51.994;4.472;2022-10-22T08:28:03;50.68;;;50.68;;
71174;SDS011;58876;51.994;4.472;2022-10-22T08:30:31;49.03;;;49.03;;
71174;SDS011;58876;51.994;4.472;2022-10-22T08:32:58;50.80;;;50.80;;
71174;SDS011;58876;51.994;4.472;2022-10-22T08:35:23;46.88;;;46.88;;
71174;SDS011;58876;51.994;4.472;2022-10-22T08:37:49;47.17;;;47.17;;
71174;SDS011;58876;51.994;4.472;2022-10-22T08:40:49;46.64;;;46.64;;
71174;SDS011;58876;51.994;4.472;2022-10-22T08:43:12;60.52;;;60.52;;
71174;SDS011;58876;51.994;4.472;2022-10-22T08:46:16;96.64;;;96.64;;
71174;SDS011;58876;51.994;4.472;2022-10-22T08:49:18;222.57;;;222.57;;
71174;SDS011;58876;51.994;4.472;2022-10-22T08:51:48;150.82;;;150.82;;
71174;SDS011;58876;51.994;4.472;2022-10-22T08:54:26;210.90;;;210.90;;
71174;SDS011;58876;51.994;4.472;2022-10-22T09:00:03;75.27;;;75.27;;
71174;SDS011;58876;51.994;4.472;2022-10-22T09:05:21;91.66;;;91.66;;
71174;SDS011;58876;51.994;4.472;2022-10-22T09:07:58;86.83;;;86.83;;
71174;SDS011;58876;51.994;4.472;2022-10-22T09:10:28;80.65;;;80.65;;
71174;SDS011;58876;51.994;4.472;2022-10-22T09:12:59;75.63;;;75.63;;
71174;SDS011;58876;51.994;4.472;2022-10-22T09:15:25;51.21;;;51.21;;
71174;SDS011;58876;51.994;4.472;2022-10-22T09:25:37;49.85;;;49.85;;
71174;SDS011;58876;51.994;4.472;2022-10-22T09:28:04;49.13;;;49.13;;
71174;SDS011;58876;51.994;4.472;2022-10-22T09:30:33;51.92;;;51.92;;
71174;SDS011;58876;51.994;4.472;2022-10-22T09:35:32;52.29;;;52.29;;
71174;SDS011;58876;51.994;4.472;2022-10-22T09:38:04;61.80;;;61.80;;
71174;SDS011;58876;51.994;4.472;2022-10-22T09:40:38;50.54;;;50.54;;
71174;SDS011;58876;51.994;4.472;2022-10-22T09:43:14;40.76;;;40.76;;
71174;SDS011;58876;51.994;4.472;2022-10-22T09:45:40;37.89;;;37.89;;
71174;SDS011;58876;51.994;4.472;2022-10-22T09:48:20;48.94;;;48.94;;
71174;SDS011;58876;51.994;4.472;2022-10-22T09:51:04;51.26;;;51.26;;
71174;SDS011;58876;51.994;4.472;2022-10-22T09:53:31;44.94;;;44.94;;
71174;SDS011;58876;51.994;4.472;2022-10-22T09:56:08;54.13;;;54.13;;
71174;SDS011;58876;51.994;4.472;2022-10-22T09:58:43;57.28;;;57.28;;
71174;SDS011;58876;51.994;4.472;2022-10-22T10:01:34;24.74;;;24.74;;
71174;SDS011;58876;51.994;4.472;2022-10-22T10:04:04;17.46;;;17.46;;
71174;SDS011;58876;51.994;4.472;2022-10-22T10:06:32;12.99;;;12.99;;
71174;SDS011;58876;51.994;4.472;2022-10-22T10:08:59;5.20;;;5.20;;
71174;SDS011;58876;51.994;4.472;2022-10-22T10:11:39;3.41;;;3.41;;
71174;SDS011;58876;51.994;4.472;2022-10-22T10:14:14;3.52;;;3.52;;
71174;SDS011;58876;51.994;4.472;2022-10-22T10:17:04;2.91;;;2.77;;
71174;SDS011;58876;51.994;4.472;2022-10-22T10:25:25;4.30;;;3.27;;
71174;SDS011;58876;51.994;4.472;2022-10-22T10:28:00;5.00;;;3.85;;
71174;SDS011;58876;51.994;4.472;2022-10-22T10:30:41;4.38;;;3.52;;
71174;SDS011;58876;51.994;4.472;2022-10-22T10:36:18;4.59;;;4.59;;
71174;SDS011;58876;51.994;4.472;2022-10-22T10:39:05;2.83;;;2.83;;
71174;SDS011;58876;51.994;4.472;2022-10-22T10:52:47;3.33;;;3.13;;
71174;SDS011;58876;51.994;4.472;2022-10-22T10:55:28;4.27;;;4.10;;
71174;SDS011;58876;51.994;4.472;2022-10-22T10:58:11;5.23;;;5.23;;
71174;SDS011;58876;51.994;4.472;2022-10-22T11:00:52;3.33;;;3.33;;
71174;SDS011;58876;51.994;4.472;2022-10-22T11:06:00;3.94;;;2.92;;
71174;SDS011;58876;51.994;4.472;2022-10-22T11:08:33;5.45;;;3.88;;
71174;SDS011;58876;51.994;4.472;2022-10-22T11:11:17;5.16;;;3.62;;
71174;SDS011;58876;51.994;4.472;2022-10-22T11:13:51;6.31;;;4.63;;
71174;SDS011;58876;51.994;4.472;2022-10-22T11:16:40;5.10;;;3.67;;
71174;SDS011;58876;51.994;4.472;2022-10-22T11:22:22;6.80;;;4.48;;
71174;SDS011;58876;51.994;4.472;2022-10-22T11:30:00;6.59;;;4.20;;
71174;SDS011;58876;51.994;4.472;2022-10-22T11:32:57;7.04;;;4.59;;
71174;SDS011;58876;51.994;4.472;2022-10-22T11:35:33;6.80;;;4.59;;
71174;SDS011;58876;51.994;4.472;2022-10-22T11:38:10;6.15;;;4.21;;
71174;SDS011;58876;51.994;4.472;2022-10-22T11:43:33;6.02;;;4.25;;
71174;SDS011;58876;51.994;4.472;2022-10-22T11:48:59;6.95;;;5.30;;
71174;SDS011;58876;51.994;4.472;2022-10-22T11:51:41;5.18;;;3.97;;
71174;SDS011;58876;51.994;4.472;2022-10-22T11:57:36;6.20;;;4.44;;
71174;SDS011;58876;51.994;4.472;2022-10-22T11:59:50;7.19;;;5.09;;
71174;SDS011;58876;51.994;4.472;2022-10-22T12:02:21;5.53;;;4.06;;
71174;SDS011;58876;51.994;4.472;2022-10-22T12:05:16;6.38;;;4.50;;
71174;SDS011;58876;51.994;4.472;2022-10-22T12:10:54;7.15;;;5.23;;
71174;SDS011;58876;51.994;4.472;2022-10-22T12:13:30;6.44;;;5.15;;
71174;SDS011;58876;51.994;4.472;2022-10-22T12:16:14;5.66;;;4.70;;
71174;SDS011;58876;51.994;4.472;2022-10-22T12:18:42;4.27;;;4.26;;
71174;SDS011;58876;51.994;4.472;2022-10-22T12:21:11;4.33;;;3.90;;
71174;SDS011;58876;51.994;4.472;2022-10-22T12:23:38;4.29;;;3.99;;
71174;SDS011;58876;51.994;4.472;2022-10-22T12:26:04;7.44;;;7.44;;
71174;SDS011;58876;51.994;4.472;2022-10-22T12:28:36;7.89;;;7.89;;
71174;SDS011;58876;51.994;4.472;2022-10-22T12:31:04;10.84;;;10.84;;
71174;SDS011;58876;51.994;4.472;2022-10-22T12:33:29;5.72;;;5.72;;
71174;SDS011;58876;51.994;4.472;2022-10-22T12:35:56;3.18;;;3.18;;
71174;SDS011;58876;51.994;4.472;2022-10-22T12:38:24;4.54;;;4.54;;
71174;SDS011;58876;51.994;4.472;2022-10-22T12:40:56;3.87;;;3.79;;
71174;SDS011;58876;51.994;4.472;2022-10-22T12:43:26;5.63;;;5.10;;
71174;SDS011;58876;51.994;4.472;2022-10-22T12:45:54;12.11;;;12.11;;
71174;SDS011;58876;51.994;4.472;2022-10-22T12:48:24;6.95;;;6.95;;
71174;SDS011;58876;51.994;4.472;2022-10-22T12:50:55;9.70;;;9.70;;
71174;SDS011;58876;51.994;4.472;2022-10-22T12:53:26;8.01;;;8.01;;
71174;SDS011;58876;51.994;4.472;2022-10-22T12:55:58;11.48;;;11.48;;
71174;SDS011;58876;51.994;4.472;2022-10-22T12:58:28;13.16;;;13.16;;
71174;SDS011;58876;51.994;4.472;2022-10-22T13:01:02;7.42;;;7.42;;
71174;SDS011;58876;51.994;4.472;2022-10-22T13:03:29;8.84;;;8.84;;
71174;SDS011;58876;51.994;4.472;2022-10-22T13:08:44;6.54;;;6.54;;
71174;SDS011;58876;51.994;4.472;2022-10-22T13:11:30;4.96;;;4.96;;
71174;SDS011;58876;51.994;4.472;2022-10-22T13:14:02;9.33;;;9.33;;
71174;SDS011;58876;51.994;4.472;2022-10-22T13:16:29;9.14;;;9.14;;
71174;SDS011;58876;51.994;4.472;2022-10-22T13:19:03;10.07;;;10.07;;
71174;SDS011;58876;51.994;4.472;2022-10-22T13:21:32;5.63;;;5.63;;
71174;SDS011;58876;51.994;4.472;2022-10-22T13:24:03;4.87;;;4.87;;
71174;SDS011;58876;51.994;4.472;2022-10-22T13:26:46;4.64;;;4.64;;
71174;SDS011;58876;51.994;4.472;2022-10-22T13:29:17;4.82;;;4.82;;
71174;SDS011;58876;51.994;4.472;2022-10-22T13:31:47;4.68;;;4.68;;
71174;SDS011;58876;51.994;4.472;2022-10-22T13:34:19;7.70;;;7.70;;
71174;SDS011;58876;51.994;4.472;2022-10-22T13:36:47;5.04;;;5.04;;
71174;SDS011;58876;51.994;4.472;2022-10-22T13:39:16;3.15;;;3.15;;
71174;SDS011;58876;51.994;4.472;2022-10-22T13:41:43;4.04;;;4.04;;
71174;SDS011;58876;51.994;4.472;2022-10-22T13:44:08;4.02;;;4.02;;
71174;SDS011;58876;51.994;4.472;2022-10-22T13:46:34;4.33;;;4.33;;
71174;SDS011;58876;51.994;4.472;2022-10-22T13:49:06;3.09;;;3.09;;
71174;SDS011;58876;51.994;4.472;2022-10-22T13:51:43;3.63;;;3.01;;
71174;SDS011;58876;51.994;4.472;2022-10-22T13:54:14;4.77;;;3.60;;
71174;SDS011;58876;51.994;4.472;2022-10-22T13:56:42;4.85;;;3.47;;
71174;SDS011;58876;51.994;4.472;2022-10-22T13:59:08;5.32;;;3.72;;
71174;SDS011;58876;51.994;4.472;2022-10-22T14:01:35;5.72;;;4.04;;
71174;SDS011;58876;51.994;4.472;2022-10-22T14:04:02;5.82;;;4.21;;
71174;SDS011;58876;51.994;4.472;2022-10-22T14:06:31;4.60;;;3.48;;
71174;SDS011;58876;51.994;4.472;2022-10-22T14:09:09;4.59;;;3.50;;
71174;SDS011;58876;51.994;4.472;2022-10-22T14:11:38;4.98;;;3.55;;
71174;SDS011;58876;51.994;4.472;2022-10-22T14:14:03;5.62;;;4.01;;
71174;SDS011;58876;51.994;4.472;2022-10-22T14:16:32;5.87;;;4.06;;
71174;SDS011;58876;51.994;4.472;2022-10-22T14:19:05;6.21;;;4.31;;
71174;SDS011;58876;51.994;4.472;2022-10-22T14:21:38;5.60;;;3.96;;
71174;SDS011;58876;51.994;4.472;2022-10-22T14:24:04;5.73;;;4.47;;
71174;SDS011;58876;51.994;4.472;2022-10-22T14:26:30;4.23;;;3.19;;
71174;SDS011;58876;51.994;4.472;2022-10-22T14:28:58;5.29;;;3.92;;
71174;SDS011;58876;51.994;4.472;2022-10-22T14:31:24;5.86;;;4.47;;
71174;SDS011;58876;51.994;4.472;2022-10-22T14:33:50;4.27;;;3.27;;
71174;SDS011;58876;51.994;4.472;2022-10-22T14:36:16;4.27;;;3.08;;
71174;SDS011;58876;51.994;4.472;2022-10-22T14:38:43;5.55;;;3.99;;
71174;SDS011;58876;51.994;4.472;2022-10-22T14:43:44;4.88;;;3.50;;
71174;SDS011;58876;51.994;4.472;2022-10-22T14:46:10;5.25;;;3.69;;
71174;SDS011;58876;51.994;4.472;2022-10-22T14:48:39;6.63;;;4.73;;
71174;SDS011;58876;51.994;4.472;2022-10-22T14:51:05;5.36;;;4.03;;
71174;SDS011;58876;51.994;4.472;2022-10-22T14:53:30;5.72;;;4.48;;
71174;SDS011;58876;51.994;4.472;2022-10-22T14:55:56;4.26;;;4.20;;
71174;SDS011;58876;51.994;4.472;2022-10-22T14:58:23;3.74;;;3.74;;
71174;SDS011;58876;51.994;4.472;2022-10-22T15:00:49;5.03;;;5.03;;
71174;SDS011;58876;51.994;4.472;2022-10-22T15:03:15;4.36;;;4.36;;
71174;SDS011;58876;51.994;4.472;2022-10-22T15:05:41;5.01;;;5.01;;
71174;SDS011;58876;51.994;4.472;2022-10-22T15:08:09;3.84;;;3.84;;
71174;SDS011;58876;51.994;4.472;2022-10-22T15:10:42;6.41;;;6.41;;
71174;SDS011;58876;51.994;4.472;2022-10-22T15:13:07;5.12;;;5.12;;
71174;SDS011;58876;51.994;4.472;2022-10-22T15:15:33;9.07;;;9.07;;
71174;SDS011;58876;51.994;4.472;2022-10-22T15:17:59;5.28;;;5.28;;
71174;SDS011;58876;51.994;4.472;2022-10-22T15:20:24;7.64;;;7.64;;
71174;SDS011;58876;51.994;4.472;2022-10-22T15:22:50;3.90;;;3.90;;
71174;SDS011;58876;51.994;4.472;2022-10-22T15:25:15;6.37;;;6.37;;
71174;SDS011;58876;51.994;4.472;2022-10-22T15:27:40;11.90;;;11.90;;
71174;SDS011;58876;51.994;4.472;2022-10-22T15:30:06;19.53;;;19.53;;
71174;SDS011;58876;51.994;4.472;2022-10-22T15:32:32;33.61;;;33.61;;
71174;SDS011;58876;51.994;4.472;2022-10-22T15:34:58;31.20;;;31.20;;
71174;SDS011;58876;51.994;4.472;2022-10-22T15:37:25;32.29;;;32.29;;
71174;SDS011;58876;51.994;4.472;2022-10-22T15:39:53;24.87;;;24.87;;
71174;SDS011;58876;51.994;4.472;2022-10-22T15:42:18;24.36;;;24.36;;
71174;SDS011;58876;51.994;4.472;2022-10-22T15:44:44;24.44;;;24.44;;
71174;SDS011;58876;51.994;4.472;2022-10-22T15:47:11;17.13;;;17.13;;
71174;SDS011;58876;51.994;4.472;2022-10-22T15:49:37;17.97;;;17.97;;
71174;SDS011;58876;51.994;4.472;2022-10-22T15:52:04;25.54;;;25.54;;
71174;SDS011;58876;51.994;4.472;2022-10-22T15:54:30;25.42;;;25.42;;
71174;SDS011;58876;51.994;4.472;2022-10-22T15:56:57;23.28;;;23.28;;
71174;SDS011;58876;51.994;4.472;2022-10-22T15:59:28;36.30;;;36.30;;
71174;SDS011;58876;51.994;4.472;2022-10-22T16:01:54;40.37;;;40.37;;
71174;SDS011;58876;51.994;4.472;2022-10-22T16:04:20;48.75;;;48.75;;
71174;SDS011;58876;51.994;4.472;2022-10-22T16:06:46;32.95;;;32.95;;
71174;SDS011;58876;51.994;4.472;2022-10-22T16:09:15;31.50;;;31.50;;
71174;SDS011;58876;51.994;4.472;2022-10-22T16:11:43;28.51;;;28.51;;
71174;SDS011;58876;51.994;4.472;2022-10-22T16:14:12;50.45;;;50.45;;